Time;durP1;ratioP1;P1;durP2;ratioP2;P2;SDS_P1;SDS_P2;PMS_P1;PMS_P2;Temp;Humidity;BMP_temperature;BMP_pressure;BME280_temperature;BME280_humidity;BME280_pressure;Samples;Min_cycle;Max_cycle;Signal;HPM_P1;HPM_P2
2023/06/21 00:00:51;;;;;;;69.30;65.63;;;19.50;99.90;;;;;;5045896;28;20319;-82
2023/06/21 00:03:17;;;;;;;73.90;69.73;;;19.50;99.90;;;;;;5045058;28;20641;-82
2023/06/21 00:05:43;;;;;;;81.43;77.33;;;19.50;99.90;;;;;;5045717;28;20305;-82
2023/06/21 00:08:08;;;;;;;81.93;78.23;;;19.50;99.90;;;;;;5045613;28;20193;-82
2023/06/21 00:10:34;;;;;;;82.57;79.03;;;19.50;99.90;;;;;;5046087;28;20216;-82
2023/06/21 00:13:00;;;;;;;83.33;79.70;;;19.40;99.90;;;;;;5045827;28;20625;-82
2023/06/21 00:15:26;;;;;;;82.93;79.13;;;19.40;99.90;;;;;;5046985;28;20186;-82
2023/06/21 00:17:52;;;;;;;81.60;77.83;;;19.40;99.90;;;;;;5045866;28;20266;-82
2023/06/21 00:20:18;;;;;;;81.03;77.27;;;19.30;99.90;;;;;;5029140;28;20201;-82
2023/06/21 00:22:45;;;;;;;76.07;72.57;;;19.30;99.90;;;;;;5047038;28;20216;-82
2023/06/21 00:25:12;;;;;;;73.43;70.03;;;19.30;99.90;;;;;;5046104;28;20175;-82
2023/06/21 00:27:39;;;;;;;70.23;66.47;;;19.30;99.90;;;;;;5046953;28;20217;-82
2023/06/21 00:30:06;;;;;;;70.33;67.03;;;19.30;99.90;;;;;;5046934;28;20209;-82
2023/06/21 00:32:31;;;;;;;73.33;70.00;;;19.30;99.90;;;;;;5046809;28;20178;-81
2023/06/21 00:34:57;;;;;;;70.63;67.50;;;19.30;99.90;;;;;;5045423;28;20241;-81
2023/06/21 00:37:26;;;;;;;73.83;70.53;;;19.30;99.90;;;;;;5046733;28;20179;-82
2023/06/21 00:39:52;;;;;;;76.37;72.90;;;19.20;99.90;;;;;;5046738;28;20233;-82
2023/06/21 00:42:18;;;;;;;78.93;75.40;;;19.10;99.90;;;;;;5045539;28;20651;-82
2023/06/21 00:44:43;;;;;;;75.53;72.37;;;19.10;99.90;;;;;;5029251;28;20734;-82
2023/06/21 00:47:09;;;;;;;77.00;73.57;;;19.10;99.90;;;;;;5045308;28;20213;-82
2023/06/21 00:49:35;;;;;;;77.03;73.63;;;19.10;99.90;;;;;;5045295;28;20736;-82
2023/06/21 00:52:02;;;;;;;73.63;70.30;;;19.20;99.90;;;;;;5029026;28;20634;-81
2023/06/21 00:54:36;;;;;;;76.40;72.70;;;19.20;99.90;;;;;;5046785;28;20174;-81
2023/06/21 00:57:03;;;;;;;71.77;68.30;;;19.10;99.90;;;;;;5046679;28;20186;-81
2023/06/21 00:59:29;;;;;;;80.73;77.03;;;19.10;99.90;;;;;;5046888;28;20377;-82
2023/06/21 01:02:00;;;;;;;71.20;67.67;;;19.20;99.90;;;;;;5046301;28;20209;-83
2023/06/21 01:04:32;;;;;;;68.80;65.20;;;19.10;99.90;;;;;;5045722;28;20185;-83
2023/06/21 01:07:03;;;;;;;71.77;67.57;;;19.10;99.90;;;;;;5046472;28;20825;-84
2023/06/21 01:09:51;;;;;;;74.83;71.07;;;19.10;99.90;;;;;;5046590;28;20170;-81
2023/06/21 01:12:27;;;;;;;81.90;77.60;;;19.10;99.90;;;;;;5046685;28;20185;-83
2023/06/21 01:15:02;;;;;;;107.07;101.93;;;19.00;99.90;;;;;;5049471;28;20181;-81
2023/06/21 01:17:38;;;;;;;70.13;66.40;;;19.00;99.90;;;;;;5031971;28;20170;-80
2023/06/21 01:20:13;;;;;;;66.47;62.97;;;19.00;99.90;;;;;;5050230;28;20178;-83
2023/06/21 01:23:14;;;;;;;75.87;72.00;;;19.00;99.90;;;;;;5048767;28;20185;-81
2023/06/21 01:25:57;;;;;;;87.33;83.30;;;18.90;99.90;;;;;;5048442;28;20197;-82
2023/06/21 01:29:00;;;;;;;95.20;90.80;;;18.90;99.90;;;;;;5050040;28;20182;-81
2023/06/21 01:31:27;;;;;;;71.03;67.23;;;18.90;99.90;;;;;;5048479;28;20200;-83
2023/06/21 01:33:55;;;;;;;71.27;67.43;;;18.90;99.90;;;;;;5049484;28;20234;-82
2023/06/21 01:36:22;;;;;;;83.40;79.17;;;18.90;99.90;;;;;;5031811;28;20241;-84
2023/06/21 01:38:49;;;;;;;79.87;75.83;;;18.90;99.90;;;;;;5048787;28;20202;-81
2023/06/21 01:41:15;;;;;;;80.63;76.53;;;18.90;99.90;;;;;;5049975;28;20182;-81
2023/06/21 01:43:41;;;;;;;74.60;70.70;;;18.80;99.90;;;;;;5049147;28;20193;-81
2023/06/21 01:46:10;;;;;;;75.93;71.57;;;18.80;99.90;;;;;;5031805;28;20210;-83
2023/06/21 01:48:37;;;;;;;117.33;112.33;;;18.80;99.90;;;;;;5049433;28;20619;-81
2023/06/21 01:51:04;;;;;;;84.77;80.60;;;18.80;99.90;;;;;;5048410;28;20178;-81
2023/06/21 01:53:32;;;;;;;94.87;90.50;;;18.80;99.90;;;;;;5049048;28;20186;-83
2023/06/21 01:56:00;;;;;;;78.73;74.93;;;18.80;99.90;;;;;;5048337;28;20277;-80
2023/06/21 01:58:25;;;;;;;77.93;74.00;;;18.80;99.90;;;;;;5031230;28;20174;-83
2023/06/21 02:00:53;;;;;;;81.50;77.10;;;18.80;99.90;;;;;;5049105;28;20328;-83
2023/06/21 02:03:21;;;;;;;78.60;74.70;;;18.80;99.90;;;;;;5049564;28;20395;-81
2023/06/21 02:05:49;;;;;;;73.13;69.23;;;18.80;99.90;;;;;;5048933;28;20218;-81
2023/06/21 02:08:16;;;;;;;76.93;72.83;;;18.80;99.90;;;;;;5048932;28;20656;-81
2023/06/21 02:10:46;;;;;;;80.50;76.53;;;18.80;99.90;;;;;;5047773;28;20190;-84
2023/06/21 02:13:14;;;;;;;78.93;74.73;;;18.80;99.90;;;;;;5031638;28;20190;-82
2023/06/21 02:15:43;;;;;;;78.80;74.63;;;18.80;99.90;;;;;;5047589;28;20178;-84
2023/06/21 02:18:12;;;;;;;80.83;76.13;;;18.90;99.90;;;;;;5048650;28;20202;-83
2023/06/21 02:20:38;;;;;;;81.97;78.00;;;18.90;99.90;;;;;;5048650;28;20655;-81
2023/06/21 02:23:05;;;;;;;80.60;76.50;;;18.90;99.90;;;;;;5031215;28;20231;-84
2023/06/21 02:25:35;;;;;;;76.77;72.60;;;18.90;99.90;;;;;;5030128;28;20209;-83
2023/06/21 02:28:02;;;;;;;85.50;80.97;;;19.00;99.90;;;;;;5031242;28;20224;-83
2023/06/21 02:30:29;;;;;;;75.80;71.77;;;19.00;99.90;;;;;;5047622;28;20182;-82
2023/06/21 02:32:54;;;;;;;84.43;79.90;;;19.10;99.90;;;;;;5030650;28;20181;-84
2023/06/21 02:35:20;;;;;;;86.97;82.47;;;19.10;99.90;;;;;;5048416;28;20230;-83
2023/06/21 02:37:47;;;;;;;99.27;94.77;;;19.10;99.90;;;;;;5031000;28;20655;-81
2023/06/21 02:40:13;;;;;;;95.47;90.90;;;19.00;99.90;;;;;;5047297;28;20276;-81
2023/06/21 02:42:40;;;;;;;94.83;90.13;;;19.00;99.90;;;;;;5048275;28;20643;-83
2023/06/21 02:45:08;;;;;;;102.63;98.13;;;19.00;99.90;;;;;;5046966;28;20213;-83
2023/06/21 02:47:34;;;;;;;85.27;81.53;;;19.00;99.90;;;;;;5048272;28;20328;-81
2023/06/21 03:00:41;;;;;;;85.30;81.33;;;19.00;99.90;;;;;;4222308;27;20285;-81
2023/06/21 03:03:07;;;;;;;87.33;83.60;;;18.90;99.90;;;;;;4922125;29;20247;-81
2023/06/21 03:05:33;;;;;;;84.70;80.30;;;18.90;99.90;;;;;;4921489;28;20233;-82
2023/06/21 03:08:00;;;;;;;85.03;80.67;;;18.90;99.90;;;;;;4920434;28;20238;-81
2023/06/21 03:10:26;;;;;;;98.83;95.00;;;18.80;99.90;;;;;;4920520;29;20257;-81
2023/06/21 03:12:52;;;;;;;84.07;80.70;;;18.80;99.90;;;;;;4922070;28;20230;-82
2023/06/21 03:15:18;;;;;;;91.20;87.43;;;18.80;99.90;;;;;;4905517;29;20221;-80
2023/06/21 03:17:44;;;;;;;87.20;83.80;;;18.80;99.90;;;;;;4921707;28;21096;-81
2023/06/21 03:20:14;;;;;;;98.30;94.20;;;18.80;99.90;;;;;;4937126;28;20221;-81
2023/06/21 03:22:43;;;;;;;84.47;80.97;;;18.80;99.90;;;;;;4922408;28;20245;-81
2023/06/21 03:25:10;;;;;;;78.60;75.43;;;18.70;99.90;;;;;;4921615;29;20643;-82
2023/06/21 03:27:36;;;;;;;96.20;91.53;;;18.70;99.90;;;;;;4922094;28;20238;-81
2023/06/21 03:30:04;;;;;;;89.30;85.00;;;18.70;99.90;;;;;;4920452;29;20682;-82
2023/06/21 03:32:29;;;;;;;102.00;98.00;;;18.70;99.90;;;;;;4922837;28;20307;-81
2023/06/21 03:34:59;;;;;;;84.73;80.87;;;18.70;99.90;;;;;;4920384;28;20281;-82
2023/06/21 03:37:27;;;;;;;84.70;81.53;;;18.60;99.90;;;;;;4922778;28;20289;-81
2023/06/21 03:39:53;;;;;;;90.90;87.53;;;18.60;99.90;;;;;;4919781;29;20937;-82
2023/06/21 03:42:19;;;;;;;84.77;81.23;;;18.60;99.90;;;;;;4921440;28;20225;-82
2023/06/21 03:44:45;;;;;;;126.93;122.10;;;18.60;99.90;;;;;;4920986;29;20309;-82
2023/06/21 03:47:11;;;;;;;102.70;98.80;;;18.60;99.90;;;;;;4921464;28;20612;-80
2023/06/21 03:49:38;;;;;;;90.80;87.17;;;18.50;99.90;;;;;;4921492;29;21057;-82
2023/06/21 03:52:05;;;;;;;92.47;88.37;;;18.50;99.90;;;;;;4921428;29;21291;-82
2023/06/21 03:54:31;;;;;;;99.97;95.93;;;18.50;99.90;;;;;;4921889;28;20228;-82
2023/06/21 03:56:56;;;;;;;83.53;79.83;;;18.60;99.90;;;;;;4919417;29;20214;-81
2023/06/21 03:59:22;;;;;;;104.03;100.07;;;18.50;99.90;;;;;;4921387;28;20250;-81
2023/06/21 04:01:48;;;;;;;86.73;82.87;;;18.50;99.90;;;;;;4921569;28;20268;-81
2023/06/21 04:04:14;;;;;;;95.17;91.33;;;18.50;99.90;;;;;;4922106;29;20305;-81
2023/06/21 04:06:39;;;;;;;95.70;91.77;;;18.50;99.90;;;;;;4920823;28;20610;-81
2023/06/21 04:09:05;;;;;;;104.03;100.13;;;18.40;99.90;;;;;;4903667;29;20233;-84
2023/06/21 04:11:32;;;;;;;95.33;91.27;;;18.40;99.90;;;;;;4920520;29;20277;-83
2023/06/21 04:13:58;;;;;;;87.27;83.67;;;18.40;99.90;;;;;;4921069;28;20324;-83
2023/06/21 04:16:23;;;;;;;94.70;90.13;;;18.40;99.90;;;;;;4922341;29;20198;-83
2023/06/21 04:18:49;;;;;;;107.57;103.07;;;18.50;99.90;;;;;;4921400;28;21051;-81
2023/06/21 04:21:15;;;;;;;88.50;84.73;;;18.50;99.90;;;;;;4920151;29;20277;-84
2023/06/21 04:23:40;;;;;;;87.40;83.90;;;18.60;99.90;;;;;;4935946;28;20587;-80
2023/06/21 04:26:06;;;;;;;93.30;89.50;;;18.60;99.90;;;;;;4921061;28;20257;-82
2023/06/21 04:28:35;;;;;;;99.43;94.60;;;18.70;99.90;;;;;;4920711;29;20679;-81
2023/06/21 04:31:01;;;;;;;96.17;92.30;;;18.70;99.90;;;;;;4919721;29;20318;-81
2023/06/21 04:33:28;;;;;;;84.03;79.63;;;18.80;99.90;;;;;;4904318;29;20230;-82
2023/06/21 04:35:54;;;;;;;95.80;91.67;;;18.90;99.90;;;;;;4921049;28;20321;-82
2023/06/21 04:38:20;;;;;;;78.93;75.67;;;18.90;99.90;;;;;;4920056;29;20225;-82
2023/06/21 04:40:45;;;;;;;102.53;98.13;;;18.90;99.90;;;;;;4919469;28;20257;-81
2023/06/21 04:43:11;;;;;;;86.87;83.20;;;18.90;99.90;;;;;;4921682;29;20287;-82
2023/06/21 04:45:37;;;;;;;80.40;76.50;;;19.00;99.90;;;;;;4919637;29;20580;-81
2023/06/21 04:48:04;;;;;;;89.17;85.13;;;19.00;99.90;;;;;;4904076;29;20662;-82
2023/06/21 04:50:30;;;;;;;87.83;84.13;;;18.90;99.90;;;;;;4923299;29;20231;-82
2023/06/21 04:52:59;;;;;;;83.50;79.23;;;18.90;99.90;;;;;;4924551;28;20187;-81
2023/06/21 04:55:26;;;;;;;81.93;78.43;;;19.00;99.90;;;;;;4924607;29;20190;-80
2023/06/21 04:57:52;;;;;;;89.13;85.23;;;19.10;99.90;;;;;;4924252;28;20265;-82
2023/06/21 05:00:18;;;;;;;77.83;74.17;;;19.20;99.90;;;;;;4924571;28;20275;-82
2023/06/21 05:02:45;;;;;;;84.30;80.83;;;19.30;99.90;;;;;;4923393;29;20230;-81
2023/06/21 05:05:10;;;;;;;81.73;78.07;;;19.30;99.90;;;;;;4894944;29;20234;-81
2023/06/21 05:07:38;;;;;;;76.90;73.37;;;19.40;99.90;;;;;;4924904;29;20266;-81
2023/06/21 05:10:08;;;;;;;73.80;70.47;;;19.60;99.90;;;;;;4922943;29;20229;-80
2023/06/21 05:12:35;;;;;;;79.50;76.03;;;20.00;99.90;;;;;;4924436;28;20229;-80
2023/06/21 05:15:01;;;;;;;69.40;66.23;;;20.20;99.90;;;;;;4906263;29;20792;-82
2023/06/21 05:17:27;;;;;;;76.43;73.07;;;20.70;99.90;;;;;;4921983;29;20232;-82
2023/06/21 05:19:52;;;;;;;84.80;80.83;;;21.70;99.90;;;;;;4922829;28;20194;-82
2023/06/21 05:22:18;;;;;;;80.23;76.63;;;23.40;99.90;;;;;;4923109;29;20250;-81
2023/06/21 05:24:44;;;;;;;67.13;63.53;;;24.50;99.90;;;;;;4924298;28;20954;-81
2023/06/21 05:27:10;;;;;;;55.67;53.27;;;24.20;99.90;;;;;;4923030;29;20236;-81
2023/06/21 05:29:35;;;;;;;59.63;56.87;;;23.80;99.90;;;;;;4922620;29;20254;-82
2023/06/21 05:32:01;;;;;;;65.33;62.40;;;24.00;99.90;;;;;;4905716;28;21452;-82
2023/06/21 05:34:28;;;;;;;65.40;62.47;;;24.90;99.90;;;;;;4922939;29;20190;-81
2023/06/21 05:36:54;;;;;;;61.10;58.42;;;25.10;99.90;;;;;;4923421;28;20233;-82
2023/06/21 05:39:20;;;;;;;55.67;53.05;;;25.50;99.90;;;;;;4938855;28;20328;-82
2023/06/21 05:41:46;;;;;;;59.28;56.47;;;26.60;99.90;;;;;;4923817;28;20733;-82
2023/06/21 05:44:13;;;;;;;53.47;51.28;;;26.20;99.90;;;;;;4924000;28;21539;-81
2023/06/21 05:46:38;;;;;;;54.35;51.88;;;25.00;99.90;;;;;;4923429;28;20706;-81
2023/06/21 05:49:04;;;;;;;52.35;49.95;;;24.30;99.90;;;;;;4906756;29;20186;-82
2023/06/21 05:51:30;;;;;;;50.83;48.40;;;24.60;99.90;;;;;;4922898;28;20217;-83
2023/06/21 05:53:56;;;;;;;46.35;44.22;;;25.00;99.90;;;;;;4905856;29;20225;-82
2023/06/21 05:56:26;;;;;;;45.15;43.20;;;25.70;99.90;;;;;;4922018;29;20738;-84
2023/06/21 05:58:53;;;;;;;43.13;41.25;;;26.30;99.90;;;;;;4923056;28;20568;-81
2023/06/21 06:01:19;;;;;;;41.03;39.17;;;27.30;99.90;;;;;;4921282;29;20667;-84
2023/06/21 06:03:45;;;;;;;37.72;36.05;;;26.40;99.90;;;;;;4923510;29;20337;-82
2023/06/21 06:06:14;;;;;;;42.38;40.55;;;27.50;99.90;;;;;;4922395;28;20273;-83
2023/06/21 06:08:39;;;;;;;34.47;32.88;;;26.80;99.90;;;;;;4923485;28;20627;-82
2023/06/21 06:11:05;;;;;;;38.47;36.63;;;27.40;99.90;;;;;;4920185;29;20237;-83
2023/06/21 06:13:31;;;;;;;31.05;29.60;;;27.40;99.90;;;;;;4919991;29;20406;-81
2023/06/21 06:15:57;;;;;;;28.48;27.05;;;27.50;99.90;;;;;;4922478;28;20345;-82
2023/06/21 06:18:22;;;;;;;28.13;26.65;;;28.60;99.90;;;;;;4923227;28;20590;-83
2023/06/21 06:20:48;;;;;;;28.05;26.60;;;28.00;99.90;;;;;;4920948;29;20994;-83
2023/06/21 06:23:14;;;;;;;24.98;23.67;;;28.40;99.90;;;;;;4921916;29;20889;-82
2023/06/21 06:25:40;;;;;;;26.02;24.30;;;27.40;99.90;;;;;;4921179;28;20193;-82
2023/06/21 06:28:06;;;;;;;35.75;33.92;;;28.50;99.90;;;;;;4923653;29;20249;-82
2023/06/21 06:30:32;;;;;;;27.42;26.00;;;27.80;99.90;;;;;;4921090;29;20222;-81
2023/06/21 06:32:58;;;;;;;26.55;25.02;;;26.60;99.90;;;;;;4922688;28;20229;-83
2023/06/21 06:35:23;;;;;;;28.00;26.60;;;27.20;99.90;;;;;;4923273;28;20252;-84
2023/06/21 06:37:49;;;;;;;27.30;26.10;;;29.10;99.90;;;;;;4922181;28;20241;-82
2023/06/21 06:40:15;;;;;;;31.05;29.55;;;29.40;99.90;;;;;;4923505;29;20568;-83
2023/06/21 06:42:41;;;;;;;26.25;24.95;;;29.00;99.90;;;;;;4923331;28;20226;-81
2023/06/21 06:45:07;;;;;;;25.98;24.27;;;29.20;99.90;;;;;;4922061;28;20221;-81
2023/06/21 06:47:33;;;;;;;25.90;24.45;;;29.00;99.90;;;;;;4919872;29;20226;-81
2023/06/21 06:50:01;;;;;;;28.55;27.15;;;27.40;99.90;;;;;;4922724;29;20874;-81
2023/06/21 06:52:27;;;;;;;27.50;26.10;;;28.40;99.90;;;;;;4922752;29;20201;-81
2023/06/21 06:54:53;;;;;;;29.58;28.17;;;27.00;99.90;;;;;;4921180;29;20221;-81
2023/06/21 06:57:18;;;;;;;26.08;24.80;;;26.30;99.90;;;;;;4922840;28;21016;-82
2023/06/21 06:59:44;;;;;;;25.75;24.48;;;27.30;99.90;;;;;;4920270;29;20244;-83
2023/06/21 07:02:10;;;;;;;25.60;24.38;;;27.40;99.90;;;;;;4921998;28;20617;-83
2023/06/21 07:04:36;;;;;;;25.33;24.15;;;27.80;99.90;;;;;;4904767;29;20201;-81
2023/06/21 07:07:01;;;;;;;29.30;28.10;;;28.20;99.90;;;;;;4921017;29;20345;-82
2023/06/21 07:09:28;;;;;;;29.40;27.80;;;28.80;99.90;;;;;;4922671;28;20237;-82
2023/06/21 07:11:59;;;;;;;28.50;27.40;;;28.70;99.90;;;;;;4920354;29;20210;-81
2023/06/21 07:14:25;;;;;;;26.50;25.35;;;28.50;99.90;;;;;;4905145;29;20726;-81
2023/06/21 07:16:51;;;;;;;31.65;30.35;;;28.70;99.90;;;;;;4920378;28;20221;-81
2023/06/21 07:19:17;;;;;;;28.23;26.83;;;30.30;99.90;;;;;;4920236;29;20194;-82
2023/06/21 07:21:44;;;;;;;26.38;25.17;;;29.80;99.90;;;;;;4921543;29;20210;-82
2023/06/21 07:24:10;;;;;;;28.55;27.33;;;28.70;99.90;;;;;;4921969;28;20244;-82
2023/06/21 07:26:38;;;;;;;34.22;32.50;;;28.50;99.90;;;;;;4903707;29;20232;-81
2023/06/21 07:29:03;;;;;;;35.05;33.45;;;28.60;99.90;;;;;;4922190;28;20222;-81
2023/06/21 07:31:32;;;;;;;33.88;32.47;;;29.50;99.90;;;;;;4921342;29;20648;-82
2023/06/21 07:33:58;;;;;;;33.35;31.95;;;30.90;99.90;;;;;;4920449;29;20761;-81
2023/06/21 07:36:25;;;;;;;29.17;27.98;;;31.90;99.90;;;;;;4921168;29;20320;-81
2023/06/21 07:38:51;;;;;;;34.15;32.65;;;30.40;99.90;;;;;;4921181;28;20280;-83
2023/06/21 07:41:16;;;;;;;32.00;30.85;;;30.90;99.90;;;;;;4919009;29;20225;-81
2023/06/21 07:43:42;;;;;;;31.48;30.08;;;31.30;99.90;;;;;;4904372;28;20636;-82
2023/06/21 07:46:08;;;;;;;28.90;27.75;;;29.40;99.90;;;;;;4937079;29;20214;-82
2023/06/21 07:48:34;;;;;;;26.35;25.35;;;28.30;99.90;;;;;;4904291;29;20765;-81
2023/06/21 07:51:00;;;;;;;33.83;32.35;;;29.30;99.90;;;;;;4921562;28;20229;-81
2023/06/21 07:53:26;;;;;;;27.70;26.05;;;29.60;99.90;;;;;;4922010;28;20218;-82
2023/06/21 07:55:52;;;;;;;24.05;22.83;;;29.40;99.90;;;;;;4920624;28;21129;-82
2023/06/21 07:58:17;;;;;;;21.77;20.77;;;31.40;99.90;;;;;;4903872;29;20193;-82
2023/06/21 08:00:43;;;;;;;16.73;15.80;;;31.20;99.90;;;;;;4921026;28;20352;-81
2023/06/21 08:03:09;;;;;;;14.75;14.02;;;30.70;99.90;;;;;;4918800;29;20214;-81
2023/06/21 08:05:34;;;;;;;13.27;12.57;;;31.30;99.90;;;;;;4919572;29;20585;-82
2023/06/21 08:08:01;;;;;;;14.80;13.90;;;32.90;99.90;;;;;;4918226;28;20774;-81
2023/06/21 08:10:28;;;;;;;15.02;14.35;;;32.20;99.90;;;;;;4904547;29;20265;-82
2023/06/21 08:12:54;;;;;;;13.20;12.57;;;32.30;99.90;;;;;;4921189;28;20222;-81
2023/06/21 08:15:20;;;;;;;14.05;13.45;;;32.00;99.90;;;;;;4921267;28;20225;-81
2023/06/21 08:17:46;;;;;;;14.85;14.18;;;32.80;99.90;;;;;;4920772;28;20298;-82
2023/06/21 08:20:12;;;;;;;15.43;14.80;;;32.60;99.90;;;;;;4920392;28;21027;-82
2023/06/21 08:22:37;;;;;;;14.75;14.15;;;32.70;99.90;;;;;;4920614;28;20675;-80
2023/06/21 08:25:03;;;;;;;13.60;13.00;;;32.60;99.90;;;;;;4923849;29;20272;-81
2023/06/21 08:27:29;;;;;;;13.75;13.15;;;32.20;99.90;;;;;;4923787;29;20237;-81
2023/06/21 08:29:55;;;;;;;19.48;18.58;;;32.30;99.90;;;;;;4907518;29;20225;-81
2023/06/21 08:32:20;;;;;;;15.02;14.10;;;31.50;99.90;;;;;;4923598;29;20226;-81
2023/06/21 08:34:47;;;;;;;17.38;16.48;;;31.20;99.90;;;;;;4924838;28;20272;-81
2023/06/21 08:37:12;;;;;;;18.00;17.20;;;32.10;99.90;;;;;;4925813;28;20206;-82
2023/06/21 08:39:38;;;;;;;19.17;18.08;;;32.30;99.90;;;;;;4922932;29;20373;-81
2023/06/21 08:42:04;;;;;;;17.02;16.13;;;32.80;99.90;;;;;;4923205;29;20581;-81
2023/06/21 08:44:30;;;;;;;19.20;18.20;;;33.10;99.90;;;;;;4922186;29;20808;-81
2023/06/21 08:46:57;;;;;;;15.40;14.55;;;32.80;99.90;;;;;;4922001;28;20213;-81
2023/06/21 08:49:26;;;;;;;17.95;17.00;;;32.90;99.90;;;;;;4922438;29;20281;-81
2023/06/21 08:51:53;;;;;;;19.52;18.30;;;32.00;99.90;;;;;;4921829;29;20245;-82
2023/06/21 08:54:26;;;;;;;20.05;18.85;;;32.60;99.90;;;;;;4938363;28;20774;-81
2023/06/21 08:56:59;;;;;;;17.90;16.98;;;32.00;99.90;;;;;;4924150;28;20233;-82
2023/06/21 08:59:39;;;;;;;17.85;16.95;;;32.20;99.90;;;;;;4923138;28;20229;-81
2023/06/21 09:02:19;;;;;;;18.38;17.48;;;32.10;99.90;;;;;;4936279;28;20218;-81
2023/06/21 09:04:49;;;;;;;21.05;19.95;;;31.80;99.90;;;;;;4922862;28;21175;-81
2023/06/21 09:07:15;;;;;;;27.42;26.13;;;31.60;99.90;;;;;;4923210;29;20210;-82
2023/06/21 09:09:43;;;;;;;24.20;22.90;;;30.90;99.90;;;;;;4922211;29;20229;-81
2023/06/21 09:12:12;;;;;;;20.70;19.80;;;30.40;99.90;;;;;;4921966;29;20214;-82
2023/06/21 09:14:39;;;;;;;20.48;19.42;;;30.60;99.90;;;;;;4922621;28;20222;-82
2023/06/21 09:17:07;;;;;;;21.20;20.25;;;30.70;99.90;;;;;;4906324;29;20229;-82
2023/06/21 09:19:35;;;;;;;20.85;19.73;;;31.10;99.90;;;;;;4921184;29;20209;-82
2023/06/21 09:22:01;;;;;;;18.15;17.25;;;32.50;99.90;;;;;;4923412;28;20301;-83
2023/06/21 09:24:27;;;;;;;20.70;19.60;;;32.90;99.90;;;;;;4923122;28;20560;-81
2023/06/21 09:26:53;;;;;;;20.88;19.48;;;33.10;99.90;;;;;;4923041;28;20401;-82
2023/06/21 09:29:19;;;;;;;20.33;19.23;;;32.80;99.90;;;;;;4922979;28;20237;-81
2023/06/21 09:31:44;;;;;;;31.73;30.42;;;32.40;99.90;;;;;;4922480;28;20194;-83
2023/06/21 09:34:10;;;;;;;20.88;19.90;;;31.00;99.90;;;;;;4921639;29;20533;-81
2023/06/21 09:36:36;;;;;;;19.38;18.42;;;30.00;99.90;;;;;;4919329;28;20222;-81
2023/06/21 09:39:09;;;;;;;19.67;18.65;;;31.30;99.90;;;;;;4918519;28;20284;-82
2023/06/21 09:41:35;;;;;;;19.48;18.58;;;30.80;99.90;;;;;;4917145;29;20262;-82
2023/06/21 09:44:02;;;;;;;22.85;21.75;;;30.00;99.90;;;;;;4919679;28;20308;-82
2023/06/21 09:46:28;;;;;;;30.40;28.92;;;30.80;99.90;;;;;;4920384;29;20742;-82
2023/06/21 09:48:54;;;;;;;28.17;26.92;;;30.40;99.90;;;;;;4919925;29;20222;-82
2023/06/21 09:51:23;;;;;;;22.15;21.20;;;29.70;99.90;;;;;;4922602;28;20226;-81
2023/06/21 09:53:52;;;;;;;21.48;20.20;;;30.40;99.90;;;;;;4922786;28;20234;-80
2023/06/21 09:56:19;;;;;;;19.98;18.98;;;31.40;99.90;;;;;;4921025;29;20233;-80
2023/06/21 09:58:48;;;;;;;18.58;17.67;;;31.20;99.90;;;;;;4883059;28;1114091;-81
2023/06/21 10:01:15;;;;;;;26.17;24.88;;;31.60;99.90;;;;;;4922439;29;20197;-80
2023/06/21 10:03:44;;;;;;;21.85;20.92;;;31.40;99.90;;;;;;4922804;28;20218;-80
2023/06/21 10:06:16;;;;;;;23.08;21.95;;;31.30;99.90;;;;;;4921462;29;20328;-81
2023/06/21 10:08:41;;;;;;;20.20;19.35;;;30.40;99.90;;;;;;4923653;28;20232;-81
2023/06/21 10:11:07;;;;;;;20.83;19.83;;;30.50;99.90;;;;;;4920937;29;20222;-80
2023/06/21 10:13:36;;;;;;;21.50;20.50;;;31.10;99.90;;;;;;4922617;29;20603;-80
2023/06/21 10:16:03;;;;;;;26.50;25.40;;;31.10;99.90;;;;;;4921893;28;20226;-81
2023/06/21 10:18:29;;;;;;;21.50;20.40;;;30.70;99.90;;;;;;4922548;28;20298;-80
2023/06/21 10:21:07;;;;;;;21.67;20.38;;;30.90;99.90;;;;;;4937692;28;20229;-82
2023/06/21 10:23:35;;;;;;;37.42;35.70;;;30.90;99.90;;;;;;4937450;28;20233;-82
2023/06/21 10:26:12;;;;;;;22.60;21.50;;;30.70;99.90;;;;;;4937511;28;20581;-82
2023/06/21 10:28:41;;;;;;;22.85;21.65;;;30.40;99.90;;;;;;4922747;28;20202;-80
2023/06/21 10:31:12;;;;;;;26.10;24.88;;;31.10;99.90;;;;;;4921999;29;20176;-85
2023/06/21 10:33:39;;;;;;;22.45;21.45;;;31.70;99.90;;;;;;4928276;28;20221;-87
2023/06/21 10:36:10;;;;;;;22.73;21.48;;;30.70;99.90;;;;;;4930495;28;20505;-88
2023/06/21 10:38:36;;;;;;;33.13;31.38;;;29.90;99.90;;;;;;4928491;28;20316;-88
2023/06/21 10:41:04;;;;;;;28.45;26.98;;;29.20;99.90;;;;;;4927733;28;20224;-88
2023/06/21 10:43:30;;;;;;;26.13;24.75;;;29.30;99.90;;;;;;4928046;29;20229;-89
2023/06/21 10:45:58;;;;;;;28.75;26.88;;;28.90;99.90;;;;;;4927675;28;20761;-89
2023/06/21 10:48:25;;;;;;;28.52;26.92;;;28.00;99.90;;;;;;4944116;28;20224;-89
2023/06/21 10:50:52;;;;;;;27.85;25.95;;;27.70;99.90;;;;;;4943922;28;20277;-89
2023/06/21 10:53:18;;;;;;;32.15;30.20;;;26.70;99.90;;;;;;4927557;29;20356;-89
2023/06/21 10:55:46;;;;;;;37.55;35.28;;;26.60;99.90;;;;;;4929329;28;20245;-89
2023/06/21 10:58:13;;;;;;;32.42;30.27;;;26.10;99.90;;;;;;4928107;29;20205;-85
2023/06/21 11:00:41;;;;;;;35.50;33.10;;;25.80;99.90;;;;;;4928146;28;20234;-88
2023/06/21 11:03:12;;;;;;;31.73;29.85;;;26.50;99.90;;;;;;4927623;29;20312;-89
2023/06/21 11:05:39;;;;;;;32.35;30.15;;;26.80;99.90;;;;;;4928615;28;20268;-87
2023/06/21 11:08:06;;;;;;;28.50;26.88;;;26.70;99.90;;;;;;4927134;29;20238;-89
2023/06/21 11:10:48;;;;;;;29.77;27.58;;;27.00;99.90;;;;;;4929902;28;20190;-88
2023/06/21 11:13:16;;;;;;;28.95;27.15;;;27.10;99.90;;;;;;4943667;29;20571;-90
2023/06/21 11:15:46;;;;;;;42.83;40.30;;;26.90;99.90;;;;;;4943015;28;20255;-88
2023/06/21 11:18:19;;;;;;;26.23;24.33;;;26.80;99.90;;;;;;4928258;28;20222;-89
2023/06/21 11:20:56;;;;;;;38.13;35.88;;;26.80;99.90;;;;;;4925954;28;20687;-89
2023/06/21 11:23:23;;;;;;;33.35;31.55;;;26.50;99.90;;;;;;4928385;28;20237;-88
2023/06/21 11:26:15;;;;;;;28.20;26.50;;;26.30;99.90;;;;;;4928264;28;20193;-88
2023/06/21 11:28:46;;;;;;;30.10;28.17;;;26.50;99.90;;;;;;4919837;28;20286;-88
2023/06/21 11:31:16;;;;;;;25.23;23.50;;;26.40;99.90;;;;;;4927599;29;20212;-89
2023/06/21 11:33:45;;;;;;;28.48;26.52;;;26.90;99.90;;;;;;4927405;29;20233;-89
2023/06/21 11:36:10;;;;;;;30.90;29.05;;;26.60;99.90;;;;;;4928408;28;20313;-88
2023/06/21 11:38:37;;;;;;;27.15;25.58;;;26.40;99.90;;;;;;4927126;29;20226;-89
2023/06/21 11:41:43;;;;;;;43.65;41.30;;;26.30;99.90;;;;;;4911262;29;20233;-92
2023/06/21 11:44:14;;;;;;;36.72;34.22;;;26.30;99.90;;;;;;4941636;28;20240;-93
2023/06/21 11:46:42;;;;;;;26.10;24.30;;;26.30;99.90;;;;;;4927424;28;20210;-91
2023/06/21 11:49:08;;;;;;;32.97;31.23;;;26.30;99.90;;;;;;4940785;29;20182;-88
2023/06/21 11:51:35;;;;;;;27.67;25.80;;;26.20;99.90;;;;;;4923928;29;20397;-89
2023/06/21 11:54:01;;;;;;;27.02;25.13;;;26.50;99.90;;;;;;4924137;29;20268;-87
2023/06/21 11:56:32;;;;;;;33.67;31.83;;;26.80;99.90;;;;;;4924536;29;20668;-89
2023/06/21 11:58:59;;;;;;;29.35;27.35;;;26.70;99.90;;;;;;4924886;28;20301;-89
2023/06/21 12:01:25;;;;;;;32.25;30.20;;;26.60;99.90;;;;;;4926271;29;20194;-89
2023/06/21 12:04:00;;;;;;;33.08;31.00;;;26.40;99.90;;;;;;4942006;28;20285;-87
2023/06/21 12:06:28;;;;;;;36.35;34.15;;;26.00;99.90;;;;;;4925426;29;20497;-90
2023/06/21 12:08:57;;;;;;;30.67;28.40;;;25.90;99.90;;;;;;4940922;28;20232;-92
2023/06/21 12:11:26;;;;;;;29.08;26.95;;;25.70;99.90;;;;;;4909159;29;20225;-93
2023/06/21 12:13:52;;;;;;;46.20;43.50;;;26.30;99.90;;;;;;4939953;28;20214;-89
2023/06/21 12:16:18;;;;;;;35.20;33.35;;;26.00;99.90;;;;;;4911474;29;20190;-91
2023/06/21 12:18:44;;;;;;;28.70;26.80;;;25.30;99.90;;;;;;4927791;29;20221;-88
2023/06/21 12:21:10;;;;;;;29.38;27.63;;;25.40;99.90;;;;;;4926740;28;20222;-91
2023/06/21 12:23:36;;;;;;;38.30;35.80;;;25.50;99.90;;;;;;4927047;28;21017;-89
2023/06/21 12:26:06;;;;;;;63.78;60.95;;;25.50;99.90;;;;;;4925481;28;20244;-91
2023/06/21 12:28:34;;;;;;;30.67;28.40;;;25.10;99.90;;;;;;4926037;29;20233;-92
2023/06/21 12:31:07;;;;;;;31.05;29.15;;;25.20;99.90;;;;;;4917378;29;20241;-92
2023/06/21 12:33:40;;;;;;;31.23;29.45;;;25.00;99.90;;;;;;4925519;28;20226;-91
2023/06/21 12:36:24;;;;;;;41.35;39.05;;;25.10;99.90;;;;;;4925432;28;20221;-89
2023/06/21 12:38:54;;;;;;;32.70;30.75;;;25.10;99.90;;;;;;4925981;28;20225;-91